CheckWX is a tool to help pilots better visualize weather data.  It is not intended as a substitute for an official pre-flight weather briefing.

09:08:06 UTC

EGWU METAR
RAF Northolt Airport
London, United Kingdom
Current

48 mins ago

EGWU 290820Z 24008KT CAVOK 03/01 Q1008 NOSIG RMK BLU BLU
Observed
Jan-29 @ 08:20 UTC
Wind
  • 240° at 8 KTS
Visibility
10,000+ meters
Flight Rules
VFR
Cloud Levels
  • Clear skies
Temperature
C / 37°F
Dewpoint
C / 34°F
Humidity
87%
Altimeter
29.76" Hg
Pressure
1007.92 hPa
Previous

1 hour ago

EGWU 290750Z 24006KT CAVOK 02/00 Q1008 NOSIG RMK BLU BLU
Observed
Jan-29 @ 07:50 UTC
Wind
  • 240° at 6 KTS
Visibility
10,000+ meters
Flight Rules
VFR
Cloud Levels
  • Clear skies
Temperature
C / 36°F
Dewpoint
C / 32°F
Humidity
87%
Altimeter
29.76" Hg
Pressure
1007.92 hPa
Previous

2 hours ago

EGWU 290720Z 25007KT CAVOK 03/00 Q1007 NOSIG RMK BLU BLU
Observed
Jan-29 @ 07:20 UTC
Wind
  • 250° at 7 KTS
Visibility
10,000+ meters
Flight Rules
VFR
Cloud Levels
  • Clear skies
Temperature
C / 37°F
Dewpoint
C / 32°F
Humidity
81%
Altimeter
29.73" Hg
Pressure
1006.92 hPa